createdAt,value
2023-04-12T00:00:00.039Z,98553.38
2023-04-12T00:03:03.479Z,98557.53
2023-04-12T00:06:07.443Z,98556.44
2023-04-12T00:09:10.318Z,98557.06
2023-04-12T00:12:14.510Z,98548.50
2023-04-12T00:15:17.317Z,98545.19
2023-04-12T00:18:20.109Z,98545.38
2023-04-12T00:21:24.041Z,98538.72
2023-04-12T00:24:27.389Z,98539.72
2023-04-12T00:27:31.608Z,98532.72
2023-04-12T00:30:34.622Z,98530.69
2023-04-12T00:33:37.683Z,98533.34
2023-04-12T00:36:40.518Z,98527.38
2023-04-12T00:39:43.259Z,98521.72
2023-04-12T00:42:47.482Z,98523.22
2023-04-12T00:45:51.232Z,98517.88
2023-04-12T00:48:54.262Z,98519.72
2023-04-12T00:51:58.176Z,98511.16
2023-04-12T00:55:01.135Z,98514.84
2023-04-12T00:58:05.928Z,98505.81
2023-04-12T01:01:10.605Z,98503.31
2023-04-12T01:04:14.157Z,98505.66
2023-04-12T01:07:21.117Z,98500.00
2023-04-12T01:10:30.984Z,98499.81
2023-04-12T01:13:37.099Z,98500.63
2023-04-12T01:16:44.486Z,98494.94
2023-04-12T01:19:57.976Z,98495.28
2023-04-12T01:23:22.246Z,98497.44
2023-04-12T01:26:33.071Z,98487.66
2023-04-12T01:29:37.469Z,98489.13
2023-04-12T01:32:40.485Z,98475.75
2023-04-12T01:35:44.413Z,98463.22
2023-04-12T01:38:47.947Z,98475.56
2023-04-12T01:41:50.721Z,98471.63
2023-04-12T01:44:54.890Z,98468.56
2023-04-12T01:47:57.739Z,98459.06
2023-04-12T01:51:05.775Z,98465.59
2023-04-12T01:54:11.717Z,98471.78
2023-04-12T01:57:14.647Z,98465.25
2023-04-12T02:00:19.721Z,98468.94
2023-04-12T02:03:23.716Z,98457.41
2023-04-12T02:06:27.658Z,98464.31
2023-04-12T02:09:30.693Z,98460.97
2023-04-12T02:12:33.477Z,98454.25
2023-04-12T02:15:38.718Z,98456.47
2023-04-12T02:18:42.437Z,98440.59
2023-04-12T02:21:45.795Z,98441.09
2023-04-12T02:24:48.554Z,98437.69
2023-04-12T02:27:51.368Z,98428.19
2023-04-12T02:30:55.600Z,98432.16
2023-04-12T02:33:58.376Z,98424.31
2023-04-12T02:37:01.150Z,98438.25
2023-04-12T02:40:06.201Z,98429.78
2023-04-12T02:43:09.189Z,98437.50
2023-04-12T02:46:16.114Z,98438.03
2023-04-12T02:49:18.956Z,98445.41
2023-04-12T02:52:22.230Z,98429.84
2023-04-12T02:55:25.867Z,98438.03
2023-04-12T02:58:29.708Z,98432.06
2023-04-12T03:01:34.631Z,98437.69
2023-04-12T03:04:39.986Z,98434.53
2023-04-12T03:07:43.798Z,98439.53
2023-04-12T03:10:46.544Z,98439.59
2023-04-12T03:13:49.347Z,98439.25
2023-04-12T03:16:53.633Z,98435.94
2023-04-12T03:19:58.202Z,98437.47
2023-04-12T03:23:01.762Z,98443.72
2023-04-12T03:26:04.801Z,98442.72
2023-04-12T03:29:10.063Z,98439.41
2023-04-12T03:32:15.513Z,98451.84
2023-04-12T03:35:18.333Z,98447.69
2023-04-12T03:38:21.308Z,98445.13
2023-04-12T03:41:24.539Z,98437.94
2023-04-12T03:44:27.352Z,98444.94
2023-04-12T03:47:31.843Z,98435.25
2023-04-12T03:50:44.741Z,98437.81
2023-04-12T03:53:47.923Z,98444.66
2023-04-12T03:56:50.729Z,98450.19
2023-04-12T03:59:53.445Z,98453.03
2023-04-12T04:03:01.350Z,98454.03
2023-04-12T04:06:04.419Z,98453.84
2023-04-12T04:09:07.173Z,98455.06
2023-04-12T04:12:10.014Z,98460.50
2023-04-12T04:15:13.086Z,98460.41
2023-04-12T04:18:17.196Z,98463.00
2023-04-12T04:21:19.896Z,98459.69
2023-04-12T04:24:25.231Z,98452.50
2023-04-12T04:27:30.709Z,98456.53
2023-04-12T04:30:34.416Z,98461.03
2023-04-12T04:33:39.088Z,98458.75
2023-04-12T04:36:42.720Z,98463.72
2023-04-12T04:39:45.531Z,98458.38
2023-04-12T04:42:55.111Z,98453.41
2023-04-12T04:45:58.274Z,98458.44
2023-04-12T04:49:02.615Z,98461.59
2023-04-12T04:52:05.529Z,98461.41
2023-04-12T04:55:11.082Z,98464.53
2023-04-12T04:58:14.616Z,98466.75
2023-04-12T05:01:18.014Z,98466.56
2023-04-12T05:04:22.218Z,98462.25
2023-04-12T05:07:25.929Z,98456.72
2023-04-12T05:10:28.691Z,98455.59
2023-04-12T05:13:31.494Z,98466.38
2023-04-12T05:16:34.374Z,98461.03
2023-04-12T05:19:38.528Z,98453.41
2023-04-12T05:22:41.371Z,98447.69
2023-04-12T05:25:48.398Z,98444.38
2023-04-12T05:28:51.272Z,98444.84
2023-04-12T05:31:53.994Z,98448.69
2023-04-12T05:34:58.173Z,98444.91
2023-04-12T05:38:01.212Z,98443.44
2023-04-12T05:41:04.890Z,98441.78
2023-04-12T05:44:07.670Z,98442.59
2023-04-12T05:47:10.445Z,98449.41
2023-04-12T05:50:14.606Z,98449.28
2023-04-12T05:53:17.466Z,98449.97
2023-04-12T05:56:21.335Z,98439.81
2023-04-12T05:59:24.167Z,98438.91
2023-04-12T06:02:27.591Z,98434.78
2023-04-12T06:05:32.068Z,98432.56
2023-04-12T06:08:36.558Z,98440.56
2023-04-12T06:11:40.209Z,98428.34
2023-04-12T06:14:42.990Z,98436.63
2023-04-12T06:17:45.834Z,98429.78
2023-04-12T06:20:50.117Z,98433.38
2023-04-12T06:23:52.866Z,98441.28
2023-04-12T06:26:56.222Z,98433.75
2023-04-12T06:29:59.108Z,98436.06
2023-04-12T06:33:01.905Z,98443.06
2023-04-12T06:36:06.653Z,98434.78
2023-04-12T06:39:09.529Z,98444.97
2023-04-12T06:42:14.534Z,98439.56
2023-04-12T06:45:17.787Z,98441.41
2023-04-12T06:48:20.691Z,98443.06
2023-04-12T06:51:24.842Z,98432.75
2023-04-12T06:54:27.662Z,98436.78
2023-04-12T06:57:33.154Z,98437.13
2023-04-12T07:00:36.057Z,98432.25
2023-04-12T07:03:39.103Z,98437.13
2023-04-12T07:06:43.287Z,98436.00
2023-04-12T07:09:47.660Z,98436.19
2023-04-12T07:12:52.050Z,98427.16
2023-04-12T07:15:55.397Z,98433.28
2023-04-12T07:18:58.307Z,98433.13
2023-04-12T07:22:02.613Z,98429.44
2023-04-12T07:25:10.138Z,98426.91
2023-04-12T07:28:13.150Z,98421.13
2023-04-12T07:31:15.936Z,98420.03
2023-04-12T07:34:18.840Z,98425.94
2023-04-12T07:37:23.200Z,98419.91
2023-04-12T07:40:26.293Z,98416.22
2023-04-12T07:43:29.123Z,98420.03
2023-04-12T07:46:32.290Z,98422.88
2023-04-12T07:49:35.232Z,98418.56
2023-04-12T07:52:39.331Z,98413.03
2023-04-12T07:55:42.108Z,98407.69
2023-04-12T07:58:44.987Z,98407.03
2023-04-12T08:01:47.818Z,98415.78
2023-04-12T08:04:50.704Z,98410.06
2023-04-12T08:07:54.824Z,98414.13
2023-04-12T08:10:57.584Z,98405.72
2023-04-12T08:14:00.344Z,98403.06
2023-04-12T08:17:03.198Z,98383.78
2023-04-12T08:20:06.483Z,98409.66
2023-04-12T08:23:11.048Z,98410.50
2023-04-12T08:26:14.885Z,98402.94
2023-04-12T08:29:18.331Z,98395.88
2023-04-12T08:32:21.764Z,98393.69
2023-04-12T08:35:24.574Z,98397.28
2023-04-12T08:38:41.962Z,98398.00
2023-04-12T08:41:48.483Z,98399.03
2023-04-12T08:44:52.329Z,98400.56
2023-04-12T08:47:55.168Z,98403.34
2023-04-12T08:50:58.636Z,98397.09
2023-04-12T08:54:02.903Z,98402.22
2023-04-12T08:57:06.702Z,98402.53
2023-04-12T09:00:10.486Z,98399.66
2023-04-12T09:03:13.752Z,98396.66
2023-04-12T09:06:16.936Z,98404.19
2023-04-12T09:09:21.181Z,98412.19
2023-04-12T09:12:24.472Z,98403.72
2023-04-12T09:15:27.439Z,98399.47
2023-04-12T09:18:30.371Z,98404.19
2023-04-12T09:21:34.711Z,98404.44
2023-04-12T09:24:49.817Z,98393.03
2023-04-12T09:27:54.188Z,98396.53
2023-04-12T09:30:57.730Z,98396.88
2023-04-12T09:34:09.854Z,98391.81
2023-04-12T09:37:16.369Z,98403.00
2023-04-12T09:40:24.952Z,98395.22
2023-04-12T09:43:37.380Z,98386.00
2023-04-12T09:46:51.164Z,98375.16
2023-04-12T09:49:56.370Z,98383.34
2023-04-12T09:52:59.629Z,98385.66
2023-04-12T09:56:04.654Z,98382.34
2023-04-12T09:59:08.738Z,98391.00
2023-04-12T10:02:15.377Z,98395.34
2023-04-12T10:05:20.032Z,98388.97
2023-04-12T10:08:23.574Z,98389.16
2023-04-12T10:11:29.157Z,98402.53
2023-04-12T10:14:32.401Z,98397.38
2023-04-12T10:17:36.088Z,98396.69
2023-04-12T10:20:41.447Z,98395.34
2023-04-12T10:23:45.665Z,98390.00
2023-04-12T10:26:51.280Z,98389.69
2023-04-12T10:29:54.427Z,98386.69
2023-04-12T10:33:21.301Z,98381.97
2023-04-12T10:36:39.135Z,98380.31
2023-04-12T10:39:43.059Z,98376.00
2023-04-12T10:42:47.367Z,98380.50
2023-04-12T10:45:50.723Z,98371.00
2023-04-12T10:48:54.132Z,98368.03
2023-04-12T10:52:13.196Z,98380.41
2023-04-12T10:55:32.888Z,98370.81
2023-04-12T10:58:54.246Z,98372.31
2023-04-12T11:02:16.552Z,98377.28
2023-04-12T11:05:21.808Z,98352.97
2023-04-12T11:08:24.968Z,98356.09
2023-04-12T11:11:28.479Z,98352.22
2023-04-12T11:14:35.064Z,98350.94
2023-04-12T11:17:38.220Z,98354.53
2023-04-12T11:20:42.614Z,98340.69
2023-04-12T11:23:45.733Z,98339.22
2023-04-12T11:26:48.882Z,98342.00
2023-04-12T11:29:52.861Z,98341.50
2023-04-12T11:32:58.895Z,98335.97
2023-04-12T11:36:06.588Z,98332.31
2023-04-12T11:39:09.500Z,98336.47
2023-04-12T11:42:16.002Z,98334.81
2023-04-12T11:45:20.309Z,98337.28
2023-04-12T11:48:23.225Z,98318.97
2023-04-12T11:51:31.691Z,98322.47
2023-04-12T11:54:35.491Z,98316.34
2023-04-12T11:57:39.862Z,98316.91
2023-04-12T12:04:03.335Z,98309.63
2023-04-12T12:07:08.362Z,98313.78
2023-04-12T12:10:16.469Z,98303.47
2023-04-12T12:13:23.966Z,98298.84
2023-04-12T12:16:27.995Z,98299.34
2023-04-12T12:19:31.974Z,98290.31
2023-04-12T12:22:36.278Z,98278.41
2023-04-12T12:25:39.162Z,98265.25
2023-04-12T12:28:42.061Z,98269.13
2023-04-12T12:31:46.996Z,98265.97
2023-04-12T12:34:56.288Z,98262.75
2023-04-12T12:38:00.700Z,98267.28
2023-04-12T12:41:15.291Z,98262.09
2023-04-12T12:44:18.163Z,98248.19
2023-04-12T12:47:21.362Z,98252.25
2023-04-12T12:50:25.805Z,98248.41
2023-04-12T12:53:30.147Z,98243.78
2023-04-12T12:56:33.006Z,98244.91
2023-04-12T12:59:35.996Z,98247.66
2023-04-12T13:02:38.971Z,98248.75
2023-04-12T13:05:41.908Z,98230.63
2023-04-12T13:08:46.837Z,98235.13
2023-04-12T13:11:49.711Z,98225.47
2023-04-12T13:14:57.936Z,98227.75
2023-04-12T13:18:06.209Z,98236.31
2023-04-12T13:21:09.148Z,98233.47
2023-04-12T13:24:13.377Z,98230.34
2023-04-12T13:27:16.514Z,98236.59
2023-04-12T13:30:20.202Z,98226.94
2023-04-12T13:33:23.236Z,98237.13
2023-04-12T13:36:26.759Z,98235.59
2023-04-12T13:39:33.191Z,98241.84
2023-04-12T13:42:36.330Z,98241.56
2023-04-12T13:45:39.270Z,98246.91
2023-04-12T13:48:42.862Z,98243.25
2023-04-12T13:51:45.789Z,98242.03
2023-04-12T13:54:51.502Z,98245.53
2023-04-12T13:57:54.379Z,98256.59
2023-04-12T14:00:59.515Z,98258.25
2023-04-12T14:04:02.458Z,98252.25
2023-04-12T14:07:05.589Z,98257.78
2023-04-12T14:10:13.877Z,98248.94
2023-04-12T14:13:16.802Z,98249.56
2023-04-12T14:16:19.644Z,98253.94
2023-04-12T14:19:22.492Z,98239.56
2023-04-12T14:22:25.437Z,98240.09
2023-04-12T14:25:29.741Z,98234.13
2023-04-12T14:28:33.667Z,98240.47
2023-04-12T14:31:37.394Z,98231.34
2023-04-12T14:34:40.362Z,98228.69
2023-04-12T14:37:43.262Z,98231.91
2023-04-12T14:40:47.577Z,98245.25
2023-04-12T14:43:51.343Z,98247.28
2023-04-12T14:46:54.188Z,98250.59
2023-04-12T14:49:57.117Z,98245.09
2023-04-12T14:52:59.989Z,98236.69
2023-04-12T14:56:05.391Z,98243.88
2023-04-12T14:59:08.363Z,98237.53
2023-04-12T15:02:11.365Z,98249.66
2023-04-12T15:05:14.452Z,98255.69
2023-04-12T15:08:17.427Z,98257.59
2023-04-12T15:11:26.741Z,98259.28
2023-04-12T15:14:30.275Z,98242.34
2023-04-12T15:17:34.318Z,98240.53
2023-04-12T15:20:37.261Z,98239.06
2023-04-12T15:23:43.178Z,98218.53
2023-04-12T15:26:48.626Z,98223.88
2023-04-12T15:29:51.607Z,98238.34
2023-04-12T15:32:54.494Z,98244.91
2023-04-12T15:35:57.866Z,98242.88
2023-04-12T15:39:01.081Z,98242.22
2023-04-12T15:42:05.726Z,98245.09
2023-04-12T15:45:09.389Z,98253.00
2023-04-12T15:48:12.258Z,98267.53
2023-04-12T15:51:15.166Z,98273.66
2023-04-12T15:54:18.007Z,98268.09
2023-04-12T15:57:22.397Z,98265.78
2023-04-12T16:00:27.082Z,98266.19
2023-04-12T16:06:35.571Z,98242.31
2023-04-12T16:09:39.774Z,98242.13
2023-04-12T16:12:44.818Z,98239.91
2023-04-12T16:15:47.802Z,98250.44
2023-04-12T16:18:51.697Z,98246.84
2023-04-12T16:21:54.735Z,98248.41
2023-04-12T16:24:58.190Z,98258.25
2023-04-12T16:28:02.804Z,98257.31
2023-04-12T16:31:06.342Z,98247.19
2023-04-12T16:34:10.149Z,98249.41
2023-04-12T16:37:12.999Z,98235.78
2023-04-12T16:40:17.314Z,98237.81
2023-04-12T16:43:21.585Z,98236.41
2023-04-12T16:46:24.470Z,98251.44
2023-04-12T16:49:27.448Z,98238.53
2023-04-12T16:52:30.335Z,98247.56
2023-04-12T16:55:33.237Z,98249.03
2023-04-12T16:58:39.915Z,98252.28
2023-04-12T17:01:42.718Z,98258.25
2023-04-12T17:04:46.235Z,98251.69
2023-04-12T17:07:49.933Z,98253.34
2023-04-12T17:10:55.115Z,98258.78
2023-04-12T17:14:02.121Z,98264.72
2023-04-12T17:17:06.435Z,98251.91
2023-04-12T17:20:11.857Z,98261.94
2023-04-12T17:23:15.745Z,98271.41
2023-04-12T17:26:19.157Z,98265.78
2023-04-12T17:29:23.455Z,98259.09
2023-04-12T17:32:26.303Z,98273.81
2023-04-12T17:35:29.777Z,98268.47
2023-04-12T17:38:32.647Z,98260.00
2023-04-12T17:41:35.866Z,98258.44
2023-04-12T17:44:40.211Z,98262.13
2023-04-12T17:47:45.860Z,98255.09
2023-04-12T17:50:51.663Z,98250.44
2023-04-12T17:53:55.324Z,98254.13
2023-04-12T17:56:58.760Z,98253.44
2023-04-12T18:00:05.490Z,98254.13
2023-04-12T18:03:11.598Z,98244.41
2023-04-12T18:06:15.368Z,98231.06
2023-04-12T18:09:20.541Z,98250.88
2023-04-12T18:12:23.458Z,98250.88
2023-04-12T18:15:28.088Z,98240.75
2023-04-12T18:18:33.957Z,98234.56
2023-04-12T18:21:36.862Z,98232.09
2023-04-12T18:24:39.841Z,98219.94
2023-04-12T18:27:42.792Z,98223.44
2023-04-12T18:30:47.528Z,98220.13
2023-04-12T18:33:50.697Z,98227.75
2023-04-12T18:36:53.614Z,98219.75
2023-04-12T18:39:56.525Z,98221.13
2023-04-12T18:42:59.524Z,98224.72
2023-04-12T18:46:03.785Z,98218.72
2023-04-12T18:49:06.682Z,98227.13
2023-04-12T18:52:09.476Z,98214.22
2023-04-12T18:55:12.431Z,98210.06
2023-04-12T18:58:15.367Z,98213.75
2023-04-12T19:01:20.310Z,98192.59
2023-04-12T19:04:23.340Z,98192.41
2023-04-12T19:07:26.306Z,98186.22
2023-04-12T19:10:30.930Z,98178.22
2023-04-12T19:13:33.858Z,98180.22
2023-04-12T19:16:38.587Z,98168.06
2023-04-12T19:19:41.521Z,98172.41
2023-04-12T19:22:44.377Z,98168.34
2023-04-12T19:25:47.555Z,98160.53
2023-04-12T19:28:52.418Z,98160.34
2023-04-12T19:31:58.025Z,98142.81
2023-04-12T19:35:01.131Z,98136.66
2023-04-12T19:38:04.248Z,98138.31
2023-04-12T19:41:06.964Z,98137.69
2023-04-12T19:44:09.690Z,98130.88
2023-04-12T19:47:14.885Z,98138.69
2023-04-12T19:50:17.835Z,98142.38
2023-04-12T19:53:21.609Z,98149.75
2023-04-12T19:56:24.371Z,98149.19
2023-04-12T19:59:30.891Z,98144.59
2023-04-12T20:02:35.931Z,98147.34
2023-04-12T20:05:40.058Z,98156.38
2023-04-12T20:08:42.845Z,98152.03
2023-04-12T20:11:45.697Z,98149.00
2023-04-12T20:14:48.440Z,98152.69
2023-04-12T20:17:53.443Z,98151.84
2023-04-12T20:20:57.749Z,98159.69
2023-04-12T20:24:00.872Z,98159.69
2023-04-12T20:27:03.779Z,98167.44
2023-04-12T20:30:07.201Z,98170.31
2023-04-12T20:33:12.404Z,98160.81
2023-04-12T20:36:15.940Z,98162.44
2023-04-12T20:39:18.664Z,98155.94
2023-04-12T20:42:22.936Z,98148.94
2023-04-12T20:45:25.832Z,98142.38
2023-04-12T20:48:29.971Z,98134.38
2023-04-12T20:51:33.083Z,98146.91
2023-04-12T20:54:35.846Z,98156.75
2023-04-12T20:57:38.612Z,98153.91
2023-04-12T21:00:41.471Z,98141.56
2023-04-12T21:03:46.826Z,98136.56
2023-04-12T21:06:55.554Z,98146.81
2023-04-12T21:09:58.323Z,98142.09
2023-04-12T21:13:02.837Z,98138.16
2023-04-12T21:16:07.166Z,98138.31
2023-04-12T21:19:11.340Z,98130.78
2023-04-12T21:22:14.162Z,98130.41
2023-04-12T21:25:17.188Z,98127.56
2023-04-12T21:28:20.923Z,98127.09
2023-04-12T21:31:23.811Z,98124.41
2023-04-12T21:34:29.672Z,98119.72
2023-04-12T21:37:34.494Z,98121.75
2023-04-12T21:40:37.299Z,98126.06
2023-04-12T21:43:40.244Z,98124.44
2023-04-12T21:46:42.972Z,98136.41
2023-04-12T21:49:47.133Z,98132.06
2023-04-12T21:52:49.882Z,98130.59
2023-04-12T21:55:52.620Z,98129.97
2023-04-12T21:58:57.466Z,98122.38
2023-04-12T22:02:00.456Z,98129.47
2023-04-12T22:05:04.737Z,98128.75
2023-04-12T22:08:08.459Z,98113.63
2023-04-12T22:11:11.904Z,98122.66
2023-04-12T22:14:15.536Z,98128.41
2023-04-12T22:17:18.401Z,98125.72
2023-04-12T22:20:22.584Z,98132.06
2023-04-12T22:23:25.328Z,98110.06
2023-04-12T22:26:29.044Z,98114.75
2023-04-12T22:29:31.976Z,98124.81
2023-04-12T22:32:34.998Z,98117.78
2023-04-12T22:35:39.286Z,98107.69
2023-04-12T22:38:42.158Z,98112.19
2023-04-12T22:41:49.642Z,98109.53
2023-04-12T22:44:54.254Z,98109.16
2023-04-12T22:47:57.057Z,98096.50
2023-04-12T22:51:01.451Z,98088.50
2023-04-12T22:54:06.204Z,98094.84
2023-04-12T22:57:08.973Z,98074.97
2023-04-12T23:00:16.404Z,98071.00
2023-04-12T23:03:19.921Z,98079.03
2023-04-12T23:06:24.095Z,98081.50
2023-04-12T23:09:27.466Z,98070.81
2023-04-12T23:12:30.592Z,98053.78
2023-04-12T23:15:34.889Z,98069.47
2023-04-12T23:18:37.901Z,98080.97
2023-04-12T23:21:42.047Z,98061.72
2023-04-12T23:24:50.611Z,98065.78
2023-04-12T23:27:56.548Z,98056.94
2023-04-12T23:31:01.737Z,98064.13
2023-04-12T23:34:06.098Z,98054.09
2023-04-12T23:37:11.067Z,98053.88
2023-04-12T23:40:15.270Z,98045.88
2023-04-12T23:43:18.058Z,98046.91
2023-04-12T23:46:21.104Z,98046.06
2023-04-12T23:49:23.911Z,98042.78
2023-04-12T23:52:28.029Z,98036.59
2023-04-12T23:55:31.137Z,98041.13
2023-04-12T23:58:33.910Z,98037.13
